Airfield :
LOGIN :

Register | Disclaimer

   EN    FR    IT 

 










Legend :    VFR   Marginal VFR   IFR   Intensive IFR   Very Intensive IFR
Visi :
Ceiling :
>= 8 km
>= 3000ft
5 to 8 km
1000 to 3000 ft
1500m to 5 km
500 to 1000 ft
800 to 1500m
200 to 500 ft
< 800m
< 200 ft
Symbols :   Thunderstorms  Fog  Heavy snow  Heavy precipitations  Wind > 20 kt
SIGMETs :     Misc.  Thunderstorms  Icing  Turbulence  Mountain Waves  Volcanic Ashes






- Airport Elevation : 505 ft
- IATA code : SXB


LFST - Strasbourg

CURRENT METAR :
  • 281300Z AUTO 18010KT 140V220 9999 FEW046 09/02 Q1019 NOSIG

EXPIRED METARs :
  • 281230Z AUTO 17011KT 9999 FEW052 08/00 Q1020 NOSIG
  • 281200Z AUTO 20009KT 160V230 9999 SCT045 SCT054 09/00 Q1020 NOSIG
  • 281130Z AUTO 17011KT 130V200 9999 BKN044 BKN052 08/01 Q1021 NOSIG
  • 281100Z AUTO 18011KT 9999 FEW036 08/00 Q1021 NOSIG
  • 281030Z AUTO 18008KT 160V220 9999 FEW045 08/01 Q1021 NOSIG

TAF TAF LFST
Valid from the 28 at 12:00 until the 29 at 12:00 UTC


281100Z 2812/2912 18010KT 9999 FEW035
BECMG 2819/2821 BKN040
PROB40
TEMPO 2820/2906 -RA
TEMPO 2910/2912 20015G25KT



MET'MAP, your aeronautical weather chart ! - Copyright ORBIFLY December 2007 - Disclaimer

ORBIFLY MET'MAP TEAM :

Programming & Development : Alexandra Zaïnal
Concept & original design : Baudouin d'Aumeries
Assistance for programming : Marc-Olivier Méhu
Technical & hardware support : Manuel Goepfert

Contact : metmap@orbifly.com




SOURCES & CREDITS :

   NOAA